Seiken Maru — JD4216 — position and weather

sailwx.info

Track history (hours):
 
Tides and Currents Weather Stations Pressure Air Temp Water Temp Dewpoint Dewpoint Depression Visibility Wind Speed Wind Dir Waves Ship Positions

Seiken Maru

Last reported at 2018-Jun-17 19:19 UTC. Time now 2018-Jun-20 01:57 UTC.
Position N 34°36' E 135°03'.

Length 70 m.

Type: Cargo ship. MMSI: 431009715.

Date/timePositionNaut miles runAvg speedWind from/ knotsBaromVisibWave heightAir tempDewpointWater temp
2018-Jun-17 19:19N 34°36' E 135°03'3 9.4
2018-Jun-17 18:59N 34°33' E 135°05'510.6
2018-Jun-17 18:30N 34°28' E 135°04'510.5
2018-Jun-17 18:00N 34°23' E 135°02'510.9
2018-Jun-17 17:30N 34°18' E 134°59'611.0
2018-Jun-17 17:00N 34°13' E 134°60'611.4
2018-Jun-17 16:28N 34°07' E 135°01'  
2018-Jun-14 22:24N 35°31' E 139°46'5 0.2
2018-Jun-13 18:25N 35°29' E 139°52'910.9
2018-Jun-13 17:35N 35°22' E 139°45'251 9.6
2018-Jun-12 15:33N 33°54' E 134°60'3211.6
2018-Jun-12 12:50N 34°19' E 134°36'410.4
2018-Jun-12 12:29N 34°22' E 134°36'612.0
2018-Jun-12 12:00N 34°28' E 134°36'  
Track history (hours):
 
Tides and Currents Weather Stations Pressure Air Temp Water Temp Dewpoint Dewpoint Depression Visibility Wind Speed Wind Dir Waves Ship Positions

Seiken Maru

Last reported at 2018-Jun-17 19:19 UTC. Time now 2018-Jun-20 01:57 UTC.
Position N 34°36' E 135°03'.

Length 70 m.

Type: Cargo ship. MMSI: 431009715.

Date/timePositionNaut miles runAvg speedWind from/ knotsBaromVisibWave heightAir tempDewpointWater temp
2018-Jun-17 19:19N 34°36' E 135°03'3 9.4
2018-Jun-17 18:59N 34°33' E 135°05'510.6
2018-Jun-17 18:30N 34°28' E 135°04'510.5
2018-Jun-17 18:00N 34°23' E 135°02'510.9
2018-Jun-17 17:30N 34°18' E 134°59'611.0
2018-Jun-17 17:00N 34°13' E 134°60'611.4
2018-Jun-17 16:28N 34°07' E 135°01'  
2018-Jun-14 22:24N 35°31' E 139°46'5 0.2
2018-Jun-13 18:25N 35°29' E 139°52'910.9
2018-Jun-13 17:35N 35°22' E 139°45'251 9.6
2018-Jun-12 15:33N 33°54' E 134°60'3211.6
2018-Jun-12 12:50N 34°19' E 134°36'410.4
2018-Jun-12 12:29N 34°22' E 134°36'612.0
2018-Jun-12 12:00N 34°28' E 134°36'  

Dump ship's entire track history